x

West Dixon Entrance (46205) Wave Buoy

7:00pm - Sun 23rd Apr 2017 All times are PDT. -7 hours from GMT.

  • Sig Wave height 6.2ft
  • Peak Period 12s
  • Wind
    9mph, 11mph gusts
  • Sea Temp 47°f
  • Air Temp 48°f
  • Sea Pressure 1005.7mb
  • West Dixon Entrance
  • West Dixon Entrance

More Historic Weather Station data

Upgrade to MSW Pro to gain access to the past 30 days of data for over 8000 Wavebouys and Weather Stations around the globe.

Join Pro

Comparision Forecast

View Surf forecast
   
Sun 04/23 7:00pm 6ft 12s 9 11 mph 1005.7mb 47f 48f
6:00pm 6.5ft 10s 9
mph
1005.7mb 46f 48f
5:00pm 7.5ft 10s 9
mph
1005.8mb 47f 48f
4:00pm 7ft 11s 9 11 mph 1005.8mb 47f 48f
3:00pm 7ft 10s 9
mph
1005.9mb 47f 48f
2:00pm 6.5ft 11s 9 11 mph 1005.6mb 46f 48f
1:00pm 7ft 11s 11 13 mph 1005.5mb 46f 49f
12:00pm 7ft 11s 9
mph
1005.6mb 46f 48f
11:00am 6.5ft 11s 4
mph
1005.4mb 46f 48f
10:00am 6.5ft 11s 7 9 mph 1005.6mb 46f 48f
9:00am 7ft 12s 7
mph
1005.5mb 46f 47f
8:00am 7.5ft 12s 7 9 mph 1005.3mb 46f 47f
7:00am 7.5ft 12s 4 7 mph 1005.3mb 46f 47f
6:00am 7ft 12s 4 7 mph 1005.5mb 46f 47f
5:00am 8ft 11s 4 7 mph 1005.3mb 46f 47f
4:00am 8ft 11s 4
mph
1005.3mb 46f 47f
3:00am 9ft 12s 4
mph
1005.4mb 46f 47f
2:00am 8.5ft 12s 4 7 mph 1005.8mb 46f 47f
1:00am 8.5ft 10s 4 9 mph 1005.6mb 46f 48f
12:00am 8ft 12s 7 9 mph 1005.1mb 46f 49f
Sat 04/22 11:00pm 8.5ft 12s 2 4 mph 1005.2mb 46f 49f
10:00pm 8.5ft 12s 7 9 mph 1004.9mb 46f 49f
9:00pm 9ft 11s 7 9 mph 1004.5mb 46f 48f
8:00pm 10ft 12s 9
mph
1004.7mb 46f 49f
7:00pm 10ft 12s 7 11 mph 1005mb 46f 50f
6:00pm 10ft 13s 9 13 mph 1005.2mb 46f 49f
5:00pm 10.5ft 12s 11 13 mph 1005.4mb 46f 49f
4:00pm 11ft 12s 11 13 mph 1005.8mb 46f 49f
3:00pm 10ft 12s 13 18 mph 1006.3mb 46f 49f
2:00pm 11.5ft 12s 16 18 mph 1006.5mb 46f 49f
1:00pm 10ft 11s 18 22 mph 1006.6mb 46f 49f
12:00pm 10ft 12s 18 22 mph 1007.1mb 46f 49f
11:00am 10ft 12s 20 27 mph 1007.3mb 46f 49f
10:00am 10ft 11s 20 25 mph 1007.8mb 46f 48f
9:00am 10.5ft 11s 20 22 mph 1008.4mb 46f 49f
8:00am 10ft 12s 18 27 mph 1009mb 46f 49f
7:00am 11ft 12s 22 31 mph 1009.3mb 46f 48f
6:00am 10.5ft 12s 20 25 mph 1010.8mb 46f 47f
5:00am 11.5ft 10s 18 20 mph 1012.3mb 46f 47f
4:00am 11.5ft 12s 13 18 mph 1012.7mb 46f 47f
3:00am 11ft 12s 18 22 mph 1012.9mb 46f 47f
2:00am 10ft 10s 18 22 mph 1013.3mb 46f 49f
1:00am 10ft 10s 16 20 mph 1013.9mb 46f 48f
12:00am 9.5ft 9s 16 20 mph 1014.6mb 46f 49f
Fri 04/21 11:00pm 9ft 10s 13
mph
1015.5mb 46f 47f
10:00pm 9ft 9s 13 18 mph 1016.4mb 46f 48f
9:00pm 9ft 8s 13 16 mph 1016.6mb 46f 48f
8:00pm 9ft 9s 13 18 mph 1017.1mb 46f 48f
7:00pm 9ft 8s 16 18 mph 1017.6mb 46f 48f
6:00pm 9ft 8s 18 20 mph 1018.5mb 46f 48f
5:00pm 9ft 8s 18 22 mph 1019.1mb 46f 49f
4:00pm 9ft 8s 20 22 mph 1019.9mb 46f 49f
3:00pm 9ft 8s 22 27 mph 1020.4mb 46f 49f
2:00pm 7.5ft 7s 25 29 mph 1020.7mb 46f 49f
1:00pm 7ft 7s 22 27 mph 1021.1mb 46f 49f
12:00pm 6.5ft 6s 22 27 mph 1021.5mb 46f 49f
11:00am 6ft 6s 25 31 mph 1021.6mb 46f 48f
10:00am 5.5ft 9s 13 18 mph 1021.8mb 46f 48f
9:00am 5.5ft 9s 20 27 mph 1021.8mb 46f 49f
8:00am 5ft 10s 20 25 mph 1022.2mb 46f 49f
7:00am 5ft 9s 18 22 mph 1022.5mb 46f 48f
6:00am 5ft 8s 18 25 mph 1022.8mb 46f 48f
5:00am 5.5ft 10s 20 22 mph 1022.8mb 46f 47f
4:00am 5ft 8s 13 16 mph 1023.3mb 46f 48f
3:00am 5ft 9s 13 18 mph 1024mb 46f 48f
2:00am 4.5ft 8s 16 22 mph 1023.9mb 46f 48f
1:00am 5ft 9s 13 16 mph 1023.8mb 46f 48f
12:00am 5ft 9s 13 18 mph 1023.9mb 46f 49f
Thu 04/20 11:00pm 4.5ft 8s 13 16 mph 1023.4mb 47f 48f
10:00pm 5ft 9s 13 16 mph 1022.9mb 47f 48f
9:00pm 4.5ft 8s 11 13 mph 1022.5mb 47f 48f
8:00pm 4.5ft 8s 9 11 mph 1022.4mb 47f 48f
7:00pm 4.5ft 9s 11 13 mph 1022mb 47f 48f
6:00pm 5ft 9s 7 9 mph 1021.9mb 47f 48f
5:00pm 5ft 9s 11 13 mph 1021.5mb 47f 48f
4:00pm 5ft 8s 9
mph
1021.2mb 47f 48f
3:00pm 5ft 9s 9
mph
1021.2mb 47f 48f
2:00pm 5ft 8s 7 9 mph 1020.7mb 47f 48f
1:00pm 5ft 9s 7 9 mph 1020.1mb 46f 48f
12:00pm 5.5ft 8s 9 11 mph 1019.2mb 46f 48f
11:00am 5ft 9s 9 11 mph 1018.4mb 46f 47f
10:00am 5.5ft 9s 9
mph
1017.8mb 46f 47f
9:00am 5.5ft 9s 9 13 mph 1016.9mb 46f 47f
8:00am 5ft 9s 9 11 mph 1016.2mb 46f 47f
7:00am 5ft 9s 7 9 mph 1015.9mb 46f 47f
6:00am 6ft 9s 9 11 mph 1015.4mb 46f 47f
5:00am 5.5ft 9s 9 11 mph 1014.9mb 46f 47f
4:00am 6ft 9s 7 9 mph 1014.4mb 46f 47f